createdAt,value
2023-05-22T00:00:37.304Z,14.97
2023-05-22T00:03:24.654Z,15.39
2023-05-22T00:05:53.525Z,15.66
2023-05-22T00:08:21.430Z,15.75
2023-05-22T00:10:49.435Z,15.27
2023-05-22T00:13:17.313Z,14.68
2023-05-22T00:15:45.163Z,14.23
2023-05-22T00:18:14.156Z,14.02
2023-05-22T00:20:42.445Z,14.51
2023-05-22T00:23:10.804Z,15.10
2023-05-22T00:25:39.789Z,15.54
2023-05-22T00:28:07.682Z,15.84
2023-05-22T00:30:37.536Z,15.99
2023-05-22T00:33:05.566Z,15.44
2023-05-22T00:35:33.647Z,14.79
2023-05-22T00:38:05.689Z,14.28
2023-05-22T00:40:33.582Z,14.04
2023-05-22T00:43:07.975Z,14.51
2023-05-22T00:45:35.964Z,15.11
2023-05-22T00:48:04.252Z,15.58
2023-05-22T00:50:32.174Z,15.93
2023-05-22T00:53:00.545Z,16.03
2023-05-22T00:55:28.500Z,15.42
2023-05-22T00:57:57.498Z,14.72
2023-05-22T01:00:26.319Z,14.14
2023-05-22T01:02:54.392Z,13.85
2023-05-22T01:05:22.788Z,14.28
2023-05-22T01:07:50.699Z,14.85
2023-05-22T01:10:18.807Z,15.33
2023-05-22T01:13:32.535Z,15.67
2023-05-22T01:16:00.336Z,15.63
2023-05-22T01:18:46.737Z,14.98
2023-05-22T01:21:25.554Z,14.27
2023-05-22T01:25:08.199Z,13.76
2023-05-22T01:28:07.376Z,13.73
2023-05-22T01:31:01.345Z,14.43
2023-05-22T01:33:42.173Z,14.90
2023-05-22T01:36:14.644Z,15.18
2023-05-22T01:38:43.306Z,15.39
2023-05-22T01:41:12.499Z,15.58
2023-05-22T01:43:42.270Z,15.75
2023-05-22T01:46:10.182Z,15.87
2023-05-22T01:48:38.185Z,15.72
2023-05-22T01:51:22.192Z,15.12
2023-05-22T01:54:37.978Z,14.43
2023-05-22T01:57:47.548Z,13.82
2023-05-22T02:00:18.558Z,13.59
2023-05-22T02:02:58.186Z,13.98
2023-05-22T02:05:29.633Z,14.33
2023-05-22T02:08:01.402Z,14.61
2023-05-22T02:10:31.798Z,14.85
2023-05-22T02:13:00.751Z,14.96
2023-05-22T02:15:28.814Z,15.02
2023-05-22T02:18:00.540Z,15.07
2023-05-22T02:20:28.444Z,14.98
2023-05-22T02:22:56.285Z,14.89
2023-05-22T02:25:24.184Z,14.89
2023-05-22T02:27:52.085Z,14.90
2023-05-22T02:30:20.016Z,15.11
2023-05-22T02:32:48.000Z,15.46
2023-05-22T02:35:16.237Z,15.75
2023-05-22T02:37:44.182Z,15.94
2023-05-22T02:40:12.506Z,15.93
2023-05-22T02:42:40.372Z,15.34
2023-05-22T02:45:09.307Z,14.68
2023-05-22T02:47:37.261Z,14.14
2023-05-22T02:50:06.564Z,13.85
2023-05-22T02:52:35.310Z,14.21
2023-05-22T02:55:08.409Z,14.72
2023-05-22T02:57:36.764Z,15.06
2023-05-22T03:00:07.430Z,15.32
2023-05-22T03:02:36.748Z,15.57
2023-05-22T03:05:07.188Z,15.74
2023-05-22T03:07:35.199Z,15.83
2023-05-22T03:10:03.493Z,15.81
2023-05-22T03:12:31.657Z,15.34
2023-05-22T03:14:59.540Z,14.86
2023-05-22T03:17:27.469Z,14.62
2023-05-22T03:19:55.855Z,14.62
2023-05-22T03:22:23.860Z,15.13
2023-05-22T03:24:52.537Z,15.67
2023-05-22T03:27:20.681Z,16.03
2023-05-22T03:29:49.455Z,16.20
2023-05-22T03:32:18.026Z,15.96
2023-05-22T03:34:46.257Z,15.72
2023-05-22T03:37:14.078Z,15.62
2023-05-22T03:39:42.084Z,15.55
2023-05-22T03:42:10.181Z,15.49
2023-05-22T03:44:37.983Z,15.46
2023-05-22T03:47:06.096Z,15.54
2023-05-22T03:49:33.955Z,15.81
2023-05-22T03:52:03.015Z,16.18
2023-05-22T03:54:31.743Z,16.63
2023-05-22T03:56:59.650Z,17.12
2023-05-22T03:59:27.542Z,17.63
2023-05-22T04:01:58.203Z,18.13
2023-05-22T04:04:27.149Z,18.61
2023-05-22T04:06:58.358Z,19.11
2023-05-22T04:09:32.550Z,19.60
2023-05-22T04:12:01.848Z,20.00
2023-05-22T04:14:29.727Z,20.29
2023-05-22T04:16:57.688Z,20.59
2023-05-22T04:19:28.342Z,20.88
2023-05-22T04:21:58.751Z,21.19
2023-05-22T04:24:27.808Z,21.60
2023-05-22T04:26:56.423Z,22.07
2023-05-22T04:29:24.952Z,22.53
2023-05-22T04:31:54.657Z,22.99
2023-05-22T04:34:22.697Z,23.48
2023-05-22T04:36:51.019Z,23.97
2023-05-22T04:39:19.143Z,24.38
2023-05-22T04:41:47.167Z,24.69
2023-05-22T04:44:15.250Z,24.89
2023-05-22T04:46:44.140Z,25.13
2023-05-22T04:49:12.099Z,25.49
2023-05-22T04:51:40.086Z,25.85
2023-05-22T04:54:08.064Z,26.21
2023-05-22T04:56:37.409Z,26.50
2023-05-22T04:59:09.410Z,26.66
2023-05-22T05:01:38.523Z,26.70
2023-05-22T05:04:06.604Z,26.62
2023-05-22T05:06:35.007Z,26.71
2023-05-22T05:09:03.002Z,26.92
2023-05-22T05:11:31.047Z,27.06
2023-05-22T05:13:58.931Z,26.93
2023-05-22T05:16:27.392Z,26.68
2023-05-22T05:18:56.891Z,26.42
2023-05-22T05:21:28.022Z,26.16
2023-05-22T05:23:55.982Z,25.88
2023-05-22T05:26:24.313Z,25.53
2023-05-22T05:28:52.122Z,25.01
2023-05-22T05:31:23.429Z,24.47
2023-05-22T05:33:52.260Z,23.90
2023-05-22T05:36:20.216Z,23.45
2023-05-22T05:38:48.130Z,23.15
2023-05-22T05:41:16.008Z,22.89
2023-05-22T05:43:43.890Z,22.60
2023-05-22T05:46:11.900Z,22.39
2023-05-22T05:48:39.921Z,22.20
2023-05-22T05:51:07.875Z,22.13
2023-05-22T05:53:37.191Z,22.09
2023-05-22T05:56:06.791Z,22.04
2023-05-22T05:58:34.776Z,21.95
2023-05-22T06:01:02.956Z,21.83
2023-05-22T06:03:31.520Z,21.78
2023-05-22T06:05:59.610Z,21.79
2023-05-22T06:08:28.386Z,21.85
2023-05-22T06:10:56.461Z,21.87
2023-05-22T06:13:24.320Z,21.80
2023-05-22T06:15:52.517Z,21.67
2023-05-22T06:18:20.422Z,21.54
2023-05-22T06:20:48.562Z,21.39
2023-05-22T06:23:16.533Z,21.32
2023-05-22T06:25:44.738Z,21.31
2023-05-22T06:28:12.624Z,21.26
2023-05-22T06:30:40.705Z,21.24
2023-05-22T06:33:09.138Z,21.27
2023-05-22T06:35:37.181Z,21.31
2023-05-22T06:38:05.079Z,21.36
2023-05-22T06:40:33.057Z,21.48
2023-05-22T06:43:01.853Z,21.62
2023-05-22T06:45:29.673Z,21.75
2023-05-22T06:47:57.756Z,21.83
2023-05-22T06:50:25.880Z,21.87
2023-05-22T06:52:53.867Z,21.85
2023-05-22T06:55:22.064Z,21.88
2023-05-22T06:57:50.103Z,21.96
2023-05-22T07:00:21.518Z,22.03
2023-05-22T07:02:49.975Z,22.04
2023-05-22T07:05:18.022Z,22.04
2023-05-22T07:07:46.541Z,22.03
2023-05-22T07:10:14.927Z,22.10
2023-05-22T07:12:42.716Z,22.23
2023-05-22T07:15:12.368Z,22.37
2023-05-22T07:17:41.921Z,22.41
2023-05-22T07:20:12.201Z,22.42
2023-05-22T07:22:40.128Z,22.49
2023-05-22T07:25:08.870Z,22.53
2023-05-22T07:27:36.734Z,22.56
2023-05-22T07:30:05.582Z,22.59
2023-05-22T07:32:33.441Z,22.64
2023-05-22T07:35:01.667Z,22.74
2023-05-22T07:37:30.187Z,22.91
2023-05-22T07:39:58.115Z,23.10
2023-05-22T07:42:27.458Z,23.21
2023-05-22T07:44:55.257Z,23.32
2023-05-22T07:47:23.137Z,23.41
2023-05-22T07:49:51.092Z,23.48
2023-05-22T07:52:19.483Z,23.47
2023-05-22T07:54:47.770Z,23.49
2023-05-22T07:57:15.767Z,23.56
2023-05-22T07:59:44.207Z,23.70
2023-05-22T08:02:12.433Z,23.83
2023-05-22T08:04:41.252Z,23.96
2023-05-22T08:07:09.273Z,24.07
2023-05-22T08:09:37.239Z,24.15
2023-05-22T08:12:07.678Z,24.23
2023-05-22T08:14:35.996Z,24.29
2023-05-22T08:17:04.576Z,24.27
2023-05-22T08:19:32.644Z,24.26
2023-05-22T08:22:00.730Z,24.25
2023-05-22T08:24:30.664Z,24.21
2023-05-22T08:27:00.825Z,24.23
2023-05-22T08:29:29.325Z,24.25
2023-05-22T08:31:58.407Z,24.26
2023-05-22T08:34:26.593Z,24.26
2023-05-22T08:36:54.480Z,24.38
2023-05-22T08:39:22.413Z,24.55
2023-05-22T08:41:51.220Z,24.69
2023-05-22T08:44:20.333Z,24.79
2023-05-22T08:46:48.898Z,24.92
2023-05-22T08:49:18.631Z,25.05
2023-05-22T08:51:53.343Z,25.11
2023-05-22T08:54:25.070Z,25.08
2023-05-22T08:56:57.284Z,25.07
2023-05-22T08:59:25.991Z,25.17
2023-05-22T09:01:54.834Z,25.22
2023-05-22T09:04:24.488Z,25.15
2023-05-22T09:06:53.309Z,25.13
2023-05-22T09:09:21.351Z,25.23
2023-05-22T09:11:51.017Z,25.36
2023-05-22T09:14:18.950Z,25.44
2023-05-22T09:16:49.915Z,25.51
2023-05-22T09:19:17.890Z,25.54
2023-05-22T09:21:46.347Z,25.51
2023-05-22T09:24:14.243Z,25.38
2023-05-22T09:26:42.379Z,25.22
2023-05-22T09:29:10.332Z,25.18
2023-05-22T09:31:43.869Z,25.07
2023-05-22T09:34:15.906Z,24.86
2023-05-22T09:36:44.100Z,24.70
2023-05-22T09:39:12.134Z,24.63
2023-05-22T09:41:40.762Z,24.53
2023-05-22T09:44:16.561Z,24.50
2023-05-22T09:46:46.633Z,24.59
2023-05-22T09:49:16.737Z,24.65
2023-05-22T09:51:49.601Z,24.65
2023-05-22T09:54:20.507Z,24.72
2023-05-22T09:56:52.654Z,24.86
2023-05-22T09:59:27.060Z,25.06
2023-05-22T10:01:55.463Z,25.16
2023-05-22T10:04:24.282Z,25.11
2023-05-22T10:06:54.538Z,25.13
2023-05-22T10:09:31.229Z,25.21
2023-05-22T10:12:07.317Z,25.22
2023-05-22T10:14:36.915Z,25.22
2023-05-22T10:17:07.175Z,25.14
2023-05-22T10:19:39.703Z,24.92
2023-05-22T10:22:15.055Z,24.71
2023-05-22T10:24:43.757Z,24.58
2023-05-22T10:27:11.646Z,24.46
2023-05-22T10:29:52.726Z,24.35
2023-05-22T10:32:41.438Z,24.22
2023-05-22T10:35:24.961Z,24.17
2023-05-22T10:38:21.976Z,24.12
2023-05-22T10:40:51.198Z,24.10
2023-05-22T10:43:22.423Z,24.05
2023-05-22T10:46:02.547Z,24.05
2023-05-22T10:48:39.387Z,24.07
2023-05-22T10:51:08.886Z,24.00
2023-05-22T10:53:37.138Z,23.91
2023-05-22T10:56:14.556Z,23.82
2023-05-22T10:58:56.696Z,23.82
2023-05-22T11:01:28.024Z,23.88
2023-05-22T11:04:07.238Z,23.94
2023-05-22T11:06:46.633Z,24.06
2023-05-22T11:09:31.141Z,24.16
2023-05-22T11:12:28.892Z,24.22
2023-05-22T11:15:08.913Z,24.13
2023-05-22T11:17:39.860Z,24.02
2023-05-22T11:20:20.415Z,23.83
2023-05-22T11:23:01.740Z,23.65
2023-05-22T11:25:30.450Z,23.60
2023-05-22T11:27:59.433Z,23.59
2023-05-22T11:30:30.621Z,23.65
2023-05-22T11:33:00.235Z,23.70
2023-05-22T11:35:28.912Z,23.72
2023-05-22T11:37:57.167Z,23.72
2023-05-22T11:40:29.712Z,23.72
2023-05-22T11:42:57.978Z,23.65
2023-05-22T11:45:27.057Z,23.61
2023-05-22T11:47:55.992Z,23.56
2023-05-22T11:50:40.292Z,23.50
2023-05-22T11:53:10.724Z,23.48
2023-05-22T11:55:38.779Z,23.44
2023-05-22T11:58:06.654Z,23.41
2023-05-22T12:00:34.762Z,23.48
2023-05-22T12:03:02.914Z,23.62
2023-05-22T12:05:32.811Z,23.69
2023-05-22T12:08:01.174Z,23.76
2023-05-22T12:10:29.054Z,23.81
2023-05-22T12:12:57.119Z,23.84
2023-05-22T12:15:25.723Z,23.89
2023-05-22T12:17:56.722Z,23.95
2023-05-22T12:20:31.160Z,23.94
2023-05-22T12:23:00.051Z,23.92
2023-05-22T12:25:37.663Z,23.94
2023-05-22T12:28:08.991Z,23.97
2023-05-22T12:30:42.156Z,23.93
2023-05-22T12:33:17.641Z,23.86
2023-05-22T12:35:52.630Z,23.83
2023-05-22T12:38:22.570Z,23.78
2023-05-22T12:40:51.749Z,23.75
2023-05-22T12:43:24.039Z,23.72
2023-05-22T12:45:52.628Z,23.68
2023-05-22T12:48:23.352Z,23.69
2023-05-22T12:50:51.454Z,23.71
2023-05-22T12:53:20.094Z,23.71
2023-05-22T12:55:48.150Z,23.64
2023-05-22T12:58:16.333Z,23.54
2023-05-22T13:00:44.494Z,23.52
2023-05-22T13:03:12.842Z,23.57
2023-05-22T13:05:42.063Z,23.61
2023-05-22T13:08:10.328Z,23.60
2023-05-22T13:10:38.680Z,23.55
2023-05-22T13:13:06.654Z,23.45
2023-05-22T13:15:36.389Z,23.33
2023-05-22T13:18:04.487Z,23.26
2023-05-22T13:20:37.702Z,23.22
2023-05-22T13:23:06.813Z,23.17
2023-05-22T13:25:36.548Z,23.14
2023-05-22T13:28:07.236Z,23.14
2023-05-22T13:30:38.431Z,23.14
2023-05-22T13:33:07.518Z,23.18
2023-05-22T13:35:35.645Z,23.22
2023-05-22T13:38:03.781Z,23.22
2023-05-22T13:40:31.925Z,23.15
2023-05-22T13:42:59.952Z,23.10
2023-05-22T13:45:27.974Z,23.08
2023-05-22T13:47:55.991Z,23.04
2023-05-22T13:50:24.071Z,23.02
2023-05-22T13:52:52.317Z,23.06
2023-05-22T13:55:20.163Z,23.05
2023-05-22T13:57:48.107Z,22.98
2023-05-22T14:00:16.691Z,22.92
2023-05-22T14:02:45.603Z,22.86
2023-05-22T14:05:13.670Z,22.83
2023-05-22T14:07:41.539Z,22.82
2023-05-22T14:10:10.291Z,22.81
2023-05-22T14:12:38.141Z,22.83
2023-05-22T14:15:07.503Z,22.88
2023-05-22T14:17:35.899Z,22.93
2023-05-22T14:20:04.515Z,22.97
2023-05-22T14:22:38.532Z,22.96
2023-05-22T14:25:12.635Z,22.98
2023-05-22T14:27:40.466Z,22.97
2023-05-22T14:30:13.907Z,22.95
2023-05-22T14:32:41.868Z,22.88
2023-05-22T14:35:10.249Z,22.85
2023-05-22T14:37:38.306Z,22.81
2023-05-22T14:40:07.798Z,22.74
2023-05-22T14:42:37.206Z,22.74
2023-05-22T14:45:05.670Z,22.74
2023-05-22T14:47:33.671Z,22.69
2023-05-22T14:50:17.627Z,22.65
2023-05-22T14:52:51.479Z,22.58
2023-05-22T14:55:19.792Z,22.53
2023-05-22T14:57:47.859Z,22.49
2023-05-22T15:00:19.681Z,22.44
2023-05-22T15:02:47.833Z,22.36
2023-05-22T15:05:18.842Z,22.28
2023-05-22T15:07:48.463Z,22.23
2023-05-22T15:10:21.309Z,22.23
2023-05-22T15:12:49.625Z,22.27
2023-05-22T15:15:17.991Z,22.33
2023-05-22T15:17:46.649Z,22.36
2023-05-22T15:20:14.491Z,22.39
2023-05-22T15:22:42.501Z,22.41
2023-05-22T15:25:15.477Z,22.33
2023-05-22T15:27:43.819Z,22.25
2023-05-22T15:30:12.489Z,22.23
2023-05-22T15:32:40.730Z,22.20
2023-05-22T15:35:10.545Z,22.18
2023-05-22T15:37:38.601Z,22.15
2023-05-22T15:40:09.761Z,22.13
2023-05-22T15:42:38.549Z,22.10
2023-05-22T15:45:07.849Z,22.08
2023-05-22T15:47:35.776Z,22.08
2023-05-22T15:50:03.993Z,22.09
2023-05-22T15:52:32.817Z,22.12
2023-05-22T15:55:01.623Z,22.17
2023-05-22T15:57:29.797Z,22.21
2023-05-22T15:59:57.710Z,22.18
2023-05-22T16:02:25.900Z,22.12
2023-05-22T16:04:54.099Z,22.08
2023-05-22T16:07:22.376Z,22.12
2023-05-22T16:09:51.237Z,22.18
2023-05-22T16:12:19.639Z,22.30
2023-05-22T16:14:47.787Z,22.56
2023-05-22T16:17:15.776Z,22.90
2023-05-22T16:19:44.841Z,23.15
2023-05-22T16:22:12.802Z,23.25
2023-05-22T16:24:41.178Z,23.25
2023-05-22T16:27:09.723Z,23.26
2023-05-22T16:29:37.798Z,23.29
2023-05-22T16:32:05.800Z,23.40
2023-05-22T16:34:34.499Z,23.52
2023-05-22T16:37:04.975Z,23.67
2023-05-22T16:39:33.012Z,23.78
2023-05-22T16:42:03.049Z,23.92
2023-05-22T16:44:31.081Z,24.00
2023-05-22T16:47:01.366Z,23.98
2023-05-22T16:49:29.583Z,23.95
2023-05-22T16:51:58.180Z,23.90
2023-05-22T16:54:26.297Z,23.83
2023-05-22T16:56:54.135Z,23.81
2023-05-22T16:59:22.157Z,23.79
2023-05-22T17:01:50.279Z,23.71
2023-05-22T17:04:19.442Z,23.61
2023-05-22T17:06:49.329Z,23.56
2023-05-22T17:09:17.470Z,23.55
2023-05-22T17:11:45.534Z,23.59
2023-05-22T17:14:13.586Z,23.61
2023-05-22T17:16:41.917Z,23.55
2023-05-22T17:19:10.307Z,23.46
2023-05-22T17:21:38.388Z,23.46
2023-05-22T17:24:06.557Z,23.52
2023-05-22T17:26:34.621Z,23.51
2023-05-22T17:29:02.693Z,23.52
2023-05-22T17:31:31.154Z,23.57
2023-05-22T17:33:59.148Z,23.58
2023-05-22T17:36:27.270Z,23.59
2023-05-22T17:38:55.653Z,23.55
2023-05-22T17:41:24.712Z,23.53
2023-05-22T17:43:55.163Z,23.52
2023-05-22T17:46:23.893Z,23.44
2023-05-22T17:48:52.955Z,23.24
2023-05-22T17:51:26.767Z,22.97
2023-05-22T17:53:56.944Z,22.55
2023-05-22T17:56:25.290Z,21.96
2023-05-22T17:58:53.956Z,21.35
2023-05-22T18:01:21.936Z,20.86
2023-05-22T18:03:49.943Z,20.44
2023-05-22T18:06:18.090Z,20.07
2023-05-22T18:08:48.018Z,19.71
2023-05-22T18:11:16.272Z,19.35
2023-05-22T18:13:44.809Z,19.04
2023-05-22T18:16:13.429Z,18.77
2023-05-22T18:18:43.740Z,18.51
2023-05-22T18:21:12.740Z,18.27
2023-05-22T18:23:43.619Z,18.05
2023-05-22T18:26:11.870Z,17.86
2023-05-22T18:28:44.861Z,17.71
2023-05-22T18:31:13.144Z,17.59
2023-05-22T18:33:44.944Z,17.49
2023-05-22T18:36:13.930Z,17.38
2023-05-22T18:38:42.146Z,17.26
2023-05-22T18:41:10.275Z,17.12
2023-05-22T18:43:38.346Z,17.01
2023-05-22T18:46:06.648Z,16.91
2023-05-22T18:48:36.690Z,16.82
2023-05-22T18:51:05.996Z,16.72
2023-05-22T18:53:34.106Z,16.63
2023-05-22T18:56:04.630Z,16.55
2023-05-22T18:58:32.705Z,16.47
2023-05-22T19:01:01.930Z,16.39
2023-05-22T19:03:30.492Z,16.31
2023-05-22T19:05:58.646Z,16.22
2023-05-22T19:08:27.065Z,16.13
2023-05-22T19:11:00.187Z,16.03
2023-05-22T19:13:29.506Z,15.96
2023-05-22T19:15:59.019Z,15.88
2023-05-22T19:18:28.543Z,15.80
2023-05-22T19:20:56.632Z,15.75
2023-05-22T19:23:25.068Z,15.68
2023-05-22T19:25:53.164Z,15.70
2023-05-22T19:28:21.411Z,16.10
2023-05-22T19:30:49.489Z,16.67
2023-05-22T19:33:17.758Z,17.15
2023-05-22T19:35:47.102Z,17.57
2023-05-22T19:38:15.245Z,17.33
2023-05-22T19:40:45.032Z,16.92
2023-05-22T19:43:13.386Z,16.60
2023-05-22T19:45:41.371Z,16.37
2023-05-22T19:48:09.630Z,16.17
2023-05-22T19:50:37.801Z,15.97
2023-05-22T19:53:07.498Z,15.80
2023-05-22T19:55:35.372Z,15.76
2023-05-22T19:58:03.271Z,16.25
2023-05-22T20:00:32.006Z,16.87
2023-05-22T20:03:00.053Z,17.38
2023-05-22T20:05:28.143Z,17.69
2023-05-22T20:07:58.314Z,17.31
2023-05-22T20:10:26.378Z,16.75
2023-05-22T20:12:55.137Z,16.30
2023-05-22T20:15:24.934Z,15.94
2023-05-22T20:17:54.646Z,15.71
2023-05-22T20:20:24.974Z,15.73
2023-05-22T20:22:53.999Z,16.18
2023-05-22T20:25:22.220Z,16.71
2023-05-22T20:27:51.080Z,16.85
2023-05-22T20:30:19.914Z,16.37
2023-05-22T20:32:48.202Z,15.85
2023-05-22T20:35:20.320Z,15.52
2023-05-22T20:37:48.905Z,15.53
2023-05-22T20:40:17.586Z,16.00
2023-05-22T20:42:46.284Z,16.53
2023-05-22T20:45:14.968Z,16.93
2023-05-22T20:47:44.362Z,17.11
2023-05-22T20:50:12.457Z,16.69
2023-05-22T20:52:40.488Z,16.06
2023-05-22T20:55:09.089Z,15.55
2023-05-22T20:57:37.048Z,15.29
2023-05-22T21:00:11.208Z,15.60
2023-05-22T21:02:39.224Z,15.99
2023-05-22T21:05:08.041Z,16.30
2023-05-22T21:07:35.946Z,16.46
2023-05-22T21:10:03.994Z,16.28
2023-05-22T21:12:31.908Z,15.77
2023-05-22T21:14:59.826Z,15.31
2023-05-22T21:17:27.874Z,15.06
2023-05-22T21:19:55.905Z,15.27
2023-05-22T21:22:23.795Z,15.65
2023-05-22T21:24:51.650Z,16.12
2023-05-22T21:27:19.585Z,16.53
2023-05-22T21:29:47.501Z,16.79
2023-05-22T21:32:15.624Z,16.85
2023-05-22T21:34:43.528Z,16.34
2023-05-22T21:37:11.750Z,15.73
2023-05-22T21:39:39.919Z,15.23
2023-05-22T21:42:08.910Z,14.96
2023-05-22T21:44:37.708Z,15.35
2023-05-22T21:47:05.801Z,15.86
2023-05-22T21:49:33.857Z,16.23
2023-05-22T21:52:01.884Z,16.43
2023-05-22T21:54:29.857Z,16.26
2023-05-22T21:56:57.715Z,16.16
2023-05-22T21:59:25.833Z,15.97
2023-05-22T22:01:54.396Z,15.57
2023-05-22T22:04:22.435Z,15.17
2023-05-22T22:06:50.467Z,14.95
2023-05-22T22:09:18.281Z,15.08
2023-05-22T22:11:46.166Z,15.42
2023-05-22T22:14:14.533Z,15.59
2023-05-22T22:16:44.550Z,15.42
2023-05-22T22:19:12.993Z,15.20
2023-05-22T22:21:41.338Z,14.94
2023-05-22T22:24:09.242Z,14.75
2023-05-22T22:26:37.015Z,14.60
2023-05-22T22:29:04.896Z,14.51
2023-05-22T22:31:32.944Z,14.44
2023-05-22T22:34:00.736Z,14.44
2023-05-22T22:36:28.535Z,14.47
2023-05-22T22:38:56.707Z,14.55
2023-05-22T22:41:24.668Z,14.56
2023-05-22T22:43:54.558Z,14.56
2023-05-22T22:46:22.831Z,14.56
2023-05-22T22:48:51.272Z,14.57
2023-05-22T22:51:20.358Z,14.55
2023-05-22T22:53:48.258Z,14.52
2023-05-22T22:56:16.241Z,14.48
2023-05-22T22:58:44.205Z,14.42
2023-05-22T23:01:12.180Z,14.39
2023-05-22T23:03:40.182Z,14.36
2023-05-22T23:06:08.633Z,14.33
2023-05-22T23:08:36.872Z,14.31
2023-05-22T23:11:05.004Z,14.31
2023-05-22T23:13:33.030Z,14.34
2023-05-22T23:16:01.039Z,14.38
2023-05-22T23:18:28.987Z,14.41
2023-05-22T23:20:56.862Z,14.45
2023-05-22T23:23:24.710Z,14.51
2023-05-22T23:25:52.630Z,14.49
2023-05-22T23:28:20.643Z,14.45
2023-05-22T23:30:48.622Z,14.42
2023-05-22T23:33:16.430Z,14.42
2023-05-22T23:35:44.326Z,14.70
2023-05-22T23:38:12.271Z,15.02
2023-05-22T23:40:40.220Z,14.92
2023-05-22T23:43:08.061Z,14.63
2023-05-22T23:45:36.472Z,14.39
2023-05-22T23:48:04.396Z,14.23
2023-05-22T23:50:32.328Z,14.11
2023-05-22T23:53:00.202Z,14.23
2023-05-22T23:55:28.241Z,14.18
2023-05-22T23:57:56.329Z,14.04
